Time;durP1;ratioP1;P1;durP2;ratioP2;P2;SDS_P1;SDS_P2;PMS_P1;PMS_P2;Temp;Humidity;BMP_temperature;BMP_pressure;BME280_temperature;BME280_humidity;BME280_pressure;Samples;Min_cycle;Max_cycle;Signal;HPM_P1;HPM_P2
2024/01/23 00:00:53;;;;;;;;;;;;;;;-6.46;89.20;94024.84;5061384;28;20446;-72
2024/01/23 00:03:22;;;;;;;;;;;;;;;-6.50;89.52;94025.88;5066678;28;20370;-73
2024/01/23 00:05:50;;;;;;;;;;;;;;;-6.51;89.05;94023.47;5063292;28;19924;-73
2024/01/23 00:08:16;;;;;;;;;;;;;;;-6.55;86.66;94029.53;5064752;28;19926;-73
2024/01/23 00:10:43;;;;;;;;;;;;;;;-6.57;89.07;94029.63;5065370;28;19958;-73
2024/01/23 00:13:12;;;;;;;;;;;;;;;-6.65;88.34;94034.22;5064455;28;19963;-73
2024/01/23 00:15:44;;;;;;;;;;;;;;;-6.68;88.83;94020.22;5068323;28;19971;-73
2024/01/23 00:18:12;;;;;;;;;;;;;;;-6.66;88.38;94025.13;5063874;28;19931;-73
2024/01/23 00:20:42;;;;;;;;;;;;;;;-6.75;89.35;94016.44;5067739;28;20736;-72
2024/01/23 00:23:12;;;;;;;;;;;;;;;-6.72;90.96;94022.06;5065531;28;20393;-73
2024/01/23 00:25:39;;;;;;;;;;;;;;;-6.71;91.17;94017.91;5064598;28;20386;-73
2024/01/23 00:28:09;;;;;;;;;;;;;;;-6.67;91.46;94021.81;5068259;28;19920;-73
2024/01/23 00:30:37;;;;;;;;;;;;;;;-6.72;89.19;94017.06;5066422;28;19943;-73
2024/01/23 00:33:07;;;;;;;;;;;;;;;-6.70;90.53;94019.50;5063275;28;19935;-73
2024/01/23 00:35:35;;;;;;;;;;;;;;;-6.68;90.15;94009.44;5061394;28;20999;-73
2024/01/23 00:38:04;;;;;;;;;;;;;;;-6.68;89.56;94007.72;5061958;28;20011;-73
2024/01/23 00:40:34;;;;;;;;;;;;;;;-6.69;88.99;94013.59;5065448;28;19924;-73
2024/01/23 00:43:06;;;;;;;;;;;;;;;-6.73;88.35;93995.50;5063165;28;19924;-73
2024/01/23 00:45:34;;;;;;;;;;;;;;;-6.80;87.74;94000.91;5063983;28;19968;-73
2024/01/23 00:48:04;;;;;;;;;;;;;;;-6.83;88.59;93999.38;5065335;28;19920;-73
2024/01/23 00:50:31;;;;;;;;;;;;;;;-6.80;88.54;93991.72;5065512;28;19946;-73
2024/01/23 00:52:59;;;;;;;;;;;;;;;-6.89;87.19;93989.72;5066628;28;19921;-73
2024/01/23 00:55:26;;;;;;;;;;;;;;;-6.88;87.36;93978.84;5067268;28;19960;-72
2024/01/23 00:57:56;;;;;;;;;;;;;;;-6.90;87.23;93978.13;5064322;28;19960;-73
2024/01/23 01:00:25;;;;;;;;;;;;;;;-6.90;88.78;93975.63;5065075;28;20531;-73
2024/01/23 01:02:53;;;;;;;;;;;;;;;-6.95;87.03;93983.34;5067324;28;19920;-72
2024/01/23 01:05:28;;;;;;;;;;;;;;;-6.99;88.32;93979.44;5067350;28;19932;-74
2024/01/23 01:07:55;;;;;;;;;;;;;;;-7.08;87.14;93974.94;5059334;28;20633;-73
2024/01/23 01:10:28;;;;;;;;;;;;;;;-7.18;86.95;93967.16;5067063;28;19931;-73
2024/01/23 01:12:55;;;;;;;;;;;;;;;-7.33;86.12;93974.56;5062067;28;19924;-73
2024/01/23 01:15:23;;;;;;;;;;;;;;;-7.36;87.20;93968.94;5067527;28;20386;-74
2024/01/23 01:17:58;;;;;;;;;;;;;;;-7.36;87.50;93957.28;5068309;28;20401;-73
2024/01/23 01:20:27;;;;;;;;;;;;;;;-7.41;87.62;93959.22;5060254;28;19924;-73
2024/01/23 01:22:54;;;;;;;;;;;;;;;-7.41;88.70;93954.22;5066375;28;19928;-73
2024/01/23 01:25:21;;;;;;;;;;;;;;;-7.36;89.99;93947.28;5064791;28;19928;-73
2024/01/23 01:27:49;;;;;;;;;;;;;;;-7.32;89.86;93946.22;5062008;28;19986;-73
2024/01/23 01:30:18;;;;;;;;;;;;;;;-7.33;90.66;93943.81;5067296;28;19946;-73
2024/01/23 01:32:44;;;;;;;;;;;;;;;-7.29;91.63;93938.56;5066600;28;19930;-73
2024/01/23 01:35:13;;;;;;;;;;;;;;;-7.26;91.18;93943.38;5066643;28;19924;-72
2024/01/23 01:37:40;;;;;;;;;;;;;;;-7.20;90.92;93941.44;5059924;28;19920;-72
2024/01/23 01:40:07;;;;;;;;;;;;;;;-7.23;90.49;93944.91;5064377;28;20058;-72
2024/01/23 01:42:34;;;;;;;;;;;;;;;-7.32;90.39;93920.47;5065234;28;21080;-72
2024/01/23 01:45:03;;;;;;;;;;;;;;;-7.16;90.00;93938.72;5064509;28;20735;-72
2024/01/23 01:47:29;;;;;;;;;;;;;;;-7.08;90.16;93940.78;5068119;28;20020;-72
2024/01/23 01:49:56;;;;;;;;;;;;;;;-7.17;87.80;93941.28;5065820;28;19926;-73
2024/01/23 01:52:23;;;;;;;;;;;;;;;-7.28;86.79;93935.19;5067178;28;19946;-73
2024/01/23 01:54:50;;;;;;;;;;;;;;;-7.39;86.53;93930.78;5066076;28;19924;-73
2024/01/23 01:57:19;;;;;;;;;;;;;;;-7.45;86.69;93935.31;5062985;28;20033;-73
2024/01/23 01:59:46;;;;;;;;;;;;;;;-7.49;87.28;93921.38;5067644;28;19959;-73
2024/01/23 02:02:15;;;;;;;;;;;;;;;-7.56;87.78;93938.34;5063115;28;19921;-73
2024/01/23 02:04:42;;;;;;;;;;;;;;;-7.52;90.73;93922.34;5065775;28;20045;-73
2024/01/23 02:07:09;;;;;;;;;;;;;;;-7.51;91.53;93922.25;5059918;28;19931;-73
2024/01/23 02:09:35;;;;;;;;;;;;;;;-7.46;92.65;93922.00;5066198;28;19920;-72
2024/01/23 02:12:04;;;;;;;;;;;;;;;-7.30;91.81;93918.69;5063531;28;19924;-72
2024/01/23 02:14:31;;;;;;;;;;;;;;;-7.41;89.66;93914.28;5063463;28;19924;-72
2024/01/23 02:16:57;;;;;;;;;;;;;;;-7.36;88.23;93912.34;5063613;28;19920;-73
2024/01/23 02:19:26;;;;;;;;;;;;;;;-7.36;88.41;93909.03;5063754;28;19930;-72
2024/01/23 02:21:53;;;;;;;;;;;;;;;-7.43;87.23;93906.88;5063448;28;19920;-73
2024/01/23 02:24:21;;;;;;;;;;;;;;;-7.43;88.80;93913.56;5063973;28;20308;-73
2024/01/23 02:26:47;;;;;;;;;;;;;;;-7.38;87.66;93914.91;5063253;28;19926;-72
2024/01/23 02:29:15;;;;;;;;;;;;;;;-7.44;87.46;93914.44;5062532;28;19936;-73
2024/01/23 02:31:42;;;;;;;;;;;;;;;-7.51;87.53;93914.78;5063082;28;20062;-72
2024/01/23 02:34:09;;;;;;;;;;;;;;;-7.49;87.92;93904.72;5060163;28;19931;-72
2024/01/23 02:36:39;;;;;;;;;;;;;;;-7.52;87.33;93899.88;5059393;28;19924;-72
2024/01/23 02:39:06;;;;;;;;;;;;;;;-7.53;87.45;93896.59;5061355;28;19967;-71
2024/01/23 02:41:34;;;;;;;;;;;;;;;-7.53;87.96;93900.78;5061957;28;19946;-71
2024/01/23 02:44:00;;;;;;;;;;;;;;;-7.54;87.85;93891.69;5059922;28;19935;-72
2024/01/23 02:46:27;;;;;;;;;;;;;;;-7.48;88.19;93890.53;5061944;28;19924;-72
2024/01/23 02:48:54;;;;;;;;;;;;;;;-7.51;87.28;93887.31;5062084;28;19920;-72
2024/01/23 02:51:20;;;;;;;;;;;;;;;-7.50;87.84;93878.16;5062125;28;20445;-71
2024/01/23 02:53:47;;;;;;;;;;;;;;;-7.48;88.10;93876.38;5062292;28;19930;-71
2024/01/23 02:56:14;;;;;;;;;;;;;;;-7.51;88.10;93872.34;5063099;28;19921;-71
2024/01/23 02:58:42;;;;;;;;;;;;;;;-7.48;88.08;93871.38;5063882;28;19924;-70
2024/01/23 03:01:09;;;;;;;;;;;;;;;-7.38;88.80;93867.50;5064551;28;19920;-71
2024/01/23 03:03:35;;;;;;;;;;;;;;;-7.43;87.29;93866.13;5061952;28;20483;-71
2024/01/23 03:06:02;;;;;;;;;;;;;;;-7.42;87.16;93876.03;5061419;28;20285;-70
2024/01/23 03:08:29;;;;;;;;;;;;;;;-7.52;85.95;93870.75;5061150;28;21385;-70
2024/01/23 03:10:55;;;;;;;;;;;;;;;-7.52;88.37;93860.78;5061012;28;19924;-71
2024/01/23 03:13:22;;;;;;;;;;;;;;;-7.45;88.30;93862.94;5063500;28;20051;-71
2024/01/23 03:15:52;;;;;;;;;;;;;;;-7.45;86.87;93855.44;5062596;28;19930;-71
2024/01/23 03:18:18;;;;;;;;;;;;;;;-7.50;86.77;93858.19;5064248;28;20298;-72
2024/01/23 03:20:46;;;;;;;;;;;;;;;-7.57;86.71;93849.41;5059432;28;19931;-72
2024/01/23 03:23:13;;;;;;;;;;;;;;;-7.56;86.43;93853.50;5070421;28;19924;-72
2024/01/23 03:25:39;;;;;;;;;;;;;;;-7.63;86.08;93845.59;5071607;28;19928;-71
2024/01/23 03:28:06;;;;;;;;;;;;;;;-7.59;86.76;93839.53;5069365;28;20121;-71
2024/01/23 03:30:33;;;;;;;;;;;;;;;-7.67;86.28;93832.47;5070731;28;19920;-71
2024/01/23 03:33:01;;;;;;;;;;;;;;;-7.68;86.82;93823.38;5070489;28;19924;-72
2024/01/23 03:35:27;;;;;;;;;;;;;;;-7.72;86.08;93818.63;5067477;28;19924;-71
2024/01/23 03:37:55;;;;;;;;;;;;;;;-7.76;85.74;93823.00;5068332;28;19920;-70
2024/01/23 03:40:21;;;;;;;;;;;;;;;-7.81;85.35;93809.97;5071294;28;19947;-71
2024/01/23 03:42:48;;;;;;;;;;;;;;;-7.93;85.25;93804.75;5068232;28;20397;-70
2024/01/23 03:45:15;;;;;;;;;;;;;;;-7.95;87.08;93801.56;5071524;28;19959;-72
2024/01/23 03:47:41;;;;;;;;;;;;;;;-8.01;86.86;93789.38;5067656;28;19931;-71
2024/01/23 03:50:10;;;;;;;;;;;;;;;-8.00;88.10;93791.03;5070362;28;20483;-71
2024/01/23 03:52:36;;;;;;;;;;;;;;;-7.91;88.96;93785.53;5069617;28;19926;-71
2024/01/23 03:55:03;;;;;;;;;;;;;;;-7.92;87.88;93783.91;5070720;28;19960;-71
2024/01/23 03:57:30;;;;;;;;;;;;;;;-7.93;88.21;93781.50;5068311;28;20102;-71
2024/01/23 03:59:56;;;;;;;;;;;;;;;-7.89;89.04;93779.63;5071044;28;19921;-72
2024/01/23 04:02:25;;;;;;;;;;;;;;;-7.89;87.85;93774.66;5069623;28;20317;-71
2024/01/23 04:04:51;;;;;;;;;;;;;;;-7.98;86.96;93778.44;5070371;28;19924;-71
2024/01/23 04:07:19;;;;;;;;;;;;;;;-7.92;88.25;93773.16;5066347;28;20029;-71
2024/01/23 04:09:46;;;;;;;;;;;;;;;-7.99;88.64;93781.84;5067593;28;19920;-71
2024/01/23 04:12:13;;;;;;;;;;;;;;;-7.89;89.52;93777.97;5068127;28;20306;-71
2024/01/23 04:14:40;;;;;;;;;;;;;;;-7.89;88.56;93785.44;5067189;28;19920;-71
2024/01/23 04:17:07;;;;;;;;;;;;;;;-7.83;88.10;93789.31;5068490;28;19931;-72
2024/01/23 04:19:36;;;;;;;;;;;;;;;-7.76;90.14;93789.75;5067842;28;20010;-71
2024/01/23 04:22:03;;;;;;;;;;;;;;;-7.76;88.44;93789.75;5068194;28;19935;-72
2024/01/23 04:24:31;;;;;;;;;;;;;;;-7.86;87.21;93784.47;5069168;28;19924;-70
2024/01/23 04:26:58;;;;;;;;;;;;;;;-7.92;85.77;93788.91;5069002;28;19935;-70
2024/01/23 04:29:24;;;;;;;;;;;;;;;-7.95;86.22;93796.56;5067486;28;20423;-70
2024/01/23 04:31:51;;;;;;;;;;;;;;;-7.96;86.52;93799.13;5069990;28;19924;-71
2024/01/23 04:34:18;;;;;;;;;;;;;;;-8.12;86.19;93789.97;5062316;28;20299;-71
2024/01/23 04:36:45;;;;;;;;;;;;;;;-8.03;87.04;93787.88;5062129;28;19935;-71
2024/01/23 04:39:11;;;;;;;;;;;;;;;-8.09;86.71;93789.84;5061605;28;19925;-71
2024/01/23 04:41:39;;;;;;;;;;;;;;;-8.12;86.19;93779.19;5063058;28;19934;-71
2024/01/23 04:44:06;;;;;;;;;;;;;;;-8.18;87.78;93780.34;5066329;28;19927;-70
2024/01/23 04:46:33;;;;;;;;;;;;;;;-8.14;89.40;93783.47;5067475;28;20312;-70
2024/01/23 04:48:59;;;;;;;;;;;;;;;-8.14;90.89;93780.97;5067086;28;19928;-70
2024/01/23 04:51:25;;;;;;;;;;;;;;;-8.04;90.54;93774.63;5067664;28;20015;-70
2024/01/23 04:53:52;;;;;;;;;;;;;;;-7.96;89.69;93779.19;5063018;28;19938;-71
2024/01/23 04:56:19;;;;;;;;;;;;;;;-7.99;88.08;93782.66;5064992;28;20369;-70
2024/01/23 04:58:47;;;;;;;;;;;;;;;-7.92;89.05;93780.63;5064295;28;19938;-70
2024/01/23 05:01:13;;;;;;;;;;;;;;;-7.89;88.03;93785.44;5064362;28;20007;-70
2024/01/23 05:03:40;;;;;;;;;;;;;;;-7.94;87.08;93783.22;5063791;28;20352;-70
2024/01/23 05:06:07;;;;;;;;;;;;;;;-7.98;85.78;93783.44;5062409;28;19920;-71
2024/01/23 05:08:33;;;;;;;;;;;;;;;-8.05;87.64;93782.97;5066039;28;20476;-71
2024/01/23 05:11:00;;;;;;;;;;;;;;;-7.95;87.02;93781.59;5063708;28;19929;-71
2024/01/23 05:13:27;;;;;;;;;;;;;;;-7.95;86.14;93778.28;5064555;28;19931;-71
2024/01/23 05:15:55;;;;;;;;;;;;;;;-7.94;86.63;93779.91;5062791;28;19928;-71
2024/01/23 05:18:22;;;;;;;;;;;;;;;-7.95;86.92;93776.63;5062635;28;19930;-70
2024/01/23 05:20:49;;;;;;;;;;;;;;;-7.95;88.15;93776.63;5064879;28;19930;-70
2024/01/23 05:23:15;;;;;;;;;;;;;;;-7.89;89.34;93770.47;5064758;28;19926;-70
2024/01/23 05:25:43;;;;;;;;;;;;;;;-7.84;89.00;93766.03;5062747;28;20449;-70
2024/01/23 05:28:09;;;;;;;;;;;;;;;-7.87;89.17;93763.72;5063791;28;19936;-71
2024/01/23 05:30:36;;;;;;;;;;;;;;;-7.80;88.91;93765.00;5064563;28;19924;-71
2024/01/23 05:33:04;;;;;;;;;;;;;;;-7.73;89.17;93759.66;5064659;28;20031;-70
2024/01/23 05:35:31;;;;;;;;;;;;;;;-7.75;87.27;93762.22;5062918;28;19931;-72
2024/01/23 05:38:09;;;;;;;;;;;;;;;-7.81;87.06;93755.91;5062280;28;19924;-71
2024/01/23 05:40:36;;;;;;;;;;;;;;;-7.92;86.04;93765.69;5063679;28;19925;-71
2024/01/23 05:43:03;;;;;;;;;;;;;;;-7.99;86.19;93747.75;5056100;28;19924;-71
2024/01/23 05:45:29;;;;;;;;;;;;;;;-8.01;85.93;93744.50;5061633;28;19926;-72
2024/01/23 05:47:56;;;;;;;;;;;;;;;-8.01;85.76;93738.75;5065593;28;20297;-71
2024/01/23 05:50:24;;;;;;;;;;;;;;;-8.00;86.53;93741.16;5065962;28;19921;-71
2024/01/23 05:52:53;;;;;;;;;;;;;;;-8.02;86.55;93744.63;5064367;28;20274;-73
2024/01/23 05:55:20;;;;;;;;;;;;;;;-7.99;86.21;93731.97;5067215;28;19934;-72
2024/01/23 05:57:47;;;;;;;;;;;;;;;-7.97;86.20;93735.97;5064643;28;20294;-71
2024/01/23 06:00:14;;;;;;;;;;;;;;;-8.00;86.75;93732.88;5065647;28;19936;-71
2024/01/23 06:02:41;;;;;;;;;;;;;;;-8.09;86.32;93744.16;5063023;28;20297;-71
2024/01/23 06:05:08;;;;;;;;;;;;;;;-8.11;88.06;93741.72;5065423;28;19924;-71
2024/01/23 06:07:40;;;;;;;;;;;;;;;-8.16;87.91;93746.16;5062497;28;20386;-71
2024/01/23 06:10:07;;;;;;;;;;;;;;;-8.24;87.34;93741.59;5065139;28;19947;-71
2024/01/23 06:12:33;;;;;;;;;;;;;;;-8.20;87.58;93739.75;5063219;28;19924;-71
2024/01/23 06:15:00;;;;;;;;;;;;;;;-8.16;88.55;93745.38;5062670;28;19924;-71
2024/01/23 06:17:27;;;;;;;;;;;;;;;-8.13;88.99;93746.00;5063322;28;19926;-71
2024/01/23 06:19:54;;;;;;;;;;;;;;;-8.05;88.84;93756.34;5064893;28;20329;-71
2024/01/23 06:22:21;;;;;;;;;;;;;;;-8.02;87.62;93754.59;5055993;28;20804;-71
2024/01/23 06:25:02;;;;;;;;;;;;;;;-7.93;87.91;93769.03;5057853;28;19947;-71
2024/01/23 06:27:28;;;;;;;;;;;;;;;-8.07;88.24;93780.56;5049478;28;19931;-70
2024/01/23 06:29:55;;;;;;;;;;;;;;;-8.14;88.08;93780.97;5052560;28;20437;-70
2024/01/23 06:32:21;;;;;;;;;;;;;;;-8.05;89.29;93783.78;5049639;28;19931;-71
2024/01/23 06:34:48;;;;;;;;;;;;;;;-7.99;89.95;93795.13;5053349;28;19924;-70
2024/01/23 06:37:21;;;;;;;;;;;;;;;-7.91;89.71;93795.50;5051304;28;20233;-70
2024/01/23 06:39:48;;;;;;;;;;;;;;;-8.46;89.75;93809.22;5049710;28;19924;-72
2024/01/23 06:42:16;;;;;;;;;;;;;;;-8.26;90.81;93807.34;5053054;28;19947;-72
2024/01/23 06:44:43;;;;;;;;;;;;;;;-8.19;92.57;93813.63;5049669;28;19927;-72
2024/01/23 06:47:10;;;;;;;;;;;;;;;-8.15;93.92;93817.56;5049851;28;19931;-72
2024/01/23 06:49:36;;;;;;;;;;;;;;;-8.10;94.01;93819.81;5049302;28;20448;-72
2024/01/23 06:52:03;;;;;;;;;;;;;;;-8.01;93.38;93813.53;5050024;28;19934;-71
2024/01/23 06:54:30;;;;;;;;;;;;;;;-7.95;93.12;93815.69;5049500;28;20031;-71
2024/01/23 06:56:56;;;;;;;;;;;;;;;-7.84;95.46;93810.13;5048688;28;19925;-72
2024/01/23 06:59:24;;;;;;;;;;;;;;;-7.66;95.84;93819.13;5050092;28;20752;-72
2024/01/23 07:01:51;;;;;;;;;;;;;;;-7.55;94.94;93820.22;5053589;28;19958;-71
2024/01/23 07:04:18;;;;;;;;;;;;;;;-7.36;96.20;93816.69;5050154;28;19973;-72
2024/01/23 07:06:44;;;;;;;;;;;;;;;-7.26;95.32;93816.06;5050844;28;19924;-71
2024/01/23 07:09:12;;;;;;;;;;;;;;;-7.08;94.35;93812.63;5048419;28;20423;-72
2024/01/23 07:11:39;;;;;;;;;;;;;;;-6.91;93.59;93816.66;5055638;28;20426;-71
2024/01/23 07:14:06;;;;;;;;;;;;;;;-6.82;92.37;93808.63;5048463;28;19943;-72
2024/01/23 07:16:34;;;;;;;;;;;;;;;-6.77;91.73;93800.88;5051401;28;20035;-71
2024/01/23 07:19:01;;;;;;;;;;;;;;;-6.76;90.19;93798.28;5050611;28;19928;-72
2024/01/23 07:21:27;;;;;;;;;;;;;;;-6.64;90.24;93803.44;5047973;28;19920;-72
2024/01/23 07:23:54;;;;;;;;;;;;;;;-6.54;89.94;93794.50;5058073;28;19928;-72
2024/01/23 07:26:21;;;;;;;;;;;;;;;-6.47;89.59;93790.75;5053857;28;19924;-72
2024/01/23 07:28:47;;;;;;;;;;;;;;;-6.32;89.00;93801.53;5049237;28;19955;-72
2024/01/23 07:31:14;;;;;;;;;;;;;;;-6.17;89.96;93794.81;5053175;28;20400;-71
2024/01/23 07:33:43;;;;;;;;;;;;;;;-6.04;90.69;93799.03;5052471;28;20321;-72
2024/01/23 07:36:09;;;;;;;;;;;;;;;-5.88;90.66;93803.09;5048404;28;19931;-72
2024/01/23 07:38:36;;;;;;;;;;;;;;;-5.75;91.33;93811.41;5049948;28;20920;-71
2024/01/23 07:41:03;;;;;;;;;;;;;;;-5.61;91.84;93807.25;5056717;28;20374;-71
2024/01/23 07:43:29;;;;;;;;;;;;;;;-5.47;92.41;93803.88;5050397;28;19920;-71
2024/01/23 07:45:56;;;;;;;;;;;;;;;-5.29;93.01;93801.91;5048481;28;19931;-71
2024/01/23 07:48:23;;;;;;;;;;;;;;;-5.14;93.53;93800.13;5051196;28;19921;-71
2024/01/23 07:50:51;;;;;;;;;;;;;;;-5.23;91.98;93799.81;5052065;28;19925;-71
2024/01/23 07:53:17;;;;;;;;;;;;;;;-5.26;92.85;93795.00;5054885;28;19924;-71
2024/01/23 07:55:44;;;;;;;;;;;;;;;-5.22;93.13;93808.13;5054031;28;19925;-71
2024/01/23 07:58:12;;;;;;;;;;;;;;;-5.34;94.24;93807.22;5053975;28;19931;-71
2024/01/23 08:00:39;;;;;;;;;;;;;;;-5.20;95.92;93800.53;5051310;28;19928;-71
2024/01/23 08:03:06;;;;;;;;;;;;;;;-5.39;96.88;93807.50;5059276;28;20279;-72
2024/01/23 08:05:32;;;;;;;;;;;;;;;-5.25;95.29;93809.13;5052132;28;19924;-72
2024/01/23 08:08:01;;;;;;;;;;;;;;;-5.09;96.31;93800.63;5052364;28;19927;-72
2024/01/23 08:10:29;;;;;;;;;;;;;;;-4.84;95.84;93799.00;5050519;28;19921;-72
2024/01/23 08:12:57;;;;;;;;;;;;;;;-4.63;95.21;93789.25;5058413;28;19944;-73
2024/01/23 08:15:23;;;;;;;;;;;;;;;-4.41;95.09;93782.78;5056841;28;20404;-72
2024/01/23 08:17:50;;;;;;;;;;;;;;;-4.28;94.44;93792.81;5055182;28;20271;-72
2024/01/23 08:20:18;;;;;;;;;;;;;;;-4.04;93.17;93787.00;5052395;28;19921;-72
2024/01/23 08:22:44;;;;;;;;;;;;;;;-3.85;91.03;93785.72;5052777;28;19924;-72
2024/01/23 08:25:12;;;;;;;;;;;;;;;-3.63;89.11;93783.31;5058656;28;19920;-72
2024/01/23 08:27:39;;;;;;;;;;;;;;;-3.65;89.17;93785.09;5055257;28;19920;-72
2024/01/23 08:30:09;;;;;;;;;;;;;;;-3.43;87.73;93785.31;5053847;28;19951;-72
2024/01/23 08:32:40;;;;;;;;;;;;;;;-3.36;87.66;93787.28;5064580;28;20320;-72
2024/01/23 08:35:07;;;;;;;;;;;;;;;-3.23;87.56;93777.13;5058762;28;19920;-74
2024/01/23 08:37:39;;;;;;;;;;;;;;;-3.10;87.38;93781.28;5051223;28;19924;-72
2024/01/23 08:40:08;;;;;;;;;;;;;;;-3.04;87.59;93775.78;5055555;28;19925;-72
2024/01/23 08:42:39;;;;;;;;;;;;;;;-2.92;86.74;93784.13;5051064;28;19990;-72
2024/01/23 08:45:06;;;;;;;;;;;;;;;-3.60;89.21;93784.81;5052499;28;19930;-72
2024/01/23 08:47:33;;;;;;;;;;;;;;;-3.90;92.22;93783.53;5051091;28;20008;-72
2024/01/23 08:50:03;;;;;;;;;;;;;;;-4.07;95.29;93780.47;5056982;28;19920;-72
2024/01/23 08:52:33;;;;;;;;;;;;;;;-3.86;94.79;93779.09;5062210;28;20385;-72
2024/01/23 08:55:14;;;;;;;;;;;;;;;-3.98;95.53;93775.75;5051559;28;19981;-72
2024/01/23 08:57:43;;;;;;;;;;;;;;;-3.72;96.35;93778.13;5053178;28;20011;-72
2024/01/23 09:00:11;;;;;;;;;;;;;;;-3.62;96.07;93771.53;5050238;28;19982;-72
2024/01/23 09:02:41;;;;;;;;;;;;;;;-3.42;94.55;93772.63;5055302;28;20410;-72
2024/01/23 09:05:08;;;;;;;;;;;;;;;-3.27;93.35;93772.44;5054810;28;20406;-72
2024/01/23 09:07:36;;;;;;;;;;;;;;;-3.12;92.16;93766.31;5051619;28;19920;-72
2024/01/23 09:10:10;;;;;;;;;;;;;;;-2.92;91.86;93771.56;5053353;28;19921;-73
2024/01/23 09:12:36;;;;;;;;;;;;;;;-2.64;91.30;93771.25;5056331;28;19931;-73
2024/01/23 09:15:05;;;;;;;;;;;;;;;-2.69;89.98;93772.38;5059846;28;19928;-73
2024/01/23 09:17:32;;;;;;;;;;;;;;;-2.72;89.29;93770.09;5056347;28;19920;-73
2024/01/23 09:19:59;;;;;;;;;;;;;;;-2.43;89.90;93766.28;5051094;28;20020;-72
2024/01/23 09:22:31;;;;;;;;;;;;;;;-2.22;89.82;93763.06;5050184;28;20334;-71
2024/01/23 09:24:59;;;;;;;;;;;;;;;-1.88;92.07;93771.34;5057281;28;20022;-72
2024/01/23 09:27:28;;;;;;;;;;;;;;;-1.71;89.47;93769.19;5057571;28;19947;-72
2024/01/23 09:29:59;;;;;;;;;;;;;;;-1.71;86.93;93764.16;5060485;28;20246;-73
2024/01/23 09:32:28;;;;;;;;;;;;;;;-1.48;87.05;93772.44;5056350;28;20294;-72
2024/01/23 09:34:54;;;;;;;;;;;;;;;-1.28;88.24;93761.69;5050009;28;19921;-73
2024/01/23 09:37:29;;;;;;;;;;;;;;;-1.15;85.56;93772.34;5054551;28;19965;-73
2024/01/23 09:39:56;;;;;;;;;;;;;;;-1.02;83.81;93766.34;5051170;28;20027;-73
2024/01/23 09:42:29;;;;;;;;;;;;;;;-0.82;82.68;93757.94;5054780;28;19924;-73
2024/01/23 09:45:03;;;;;;;;;;;;;;;-0.78;80.66;93755.16;5052361;28;20272;-73
2024/01/23 09:47:39;;;;;;;;;;;;;;;-0.86;79.94;93754.06;5052279;28;19924;-73
2024/01/23 09:50:11;;;;;;;;;;;;;;;-0.71;80.33;93746.97;5051527;28;20456;-74
2024/01/23 09:52:43;;;;;;;;;;;;;;;-0.57;80.20;93745.81;5056043;28;20404;-73
2024/01/23 09:55:14;;;;;;;;;;;;;;;-0.39;80.87;93749.44;5050861;28;19921;-73
2024/01/23 09:57:40;;;;;;;;;;;;;;;-0.51;77.94;93741.97;5055244;28;19925;-73
2024/01/23 10:00:15;;;;;;;;;;;;;;;-0.42;75.97;93742.91;5050524;28;19931;-73
2024/01/23 10:02:43;;;;;;;;;;;;;;;-0.32;75.98;93740.44;5052914;28;19932;-73
2024/01/23 10:05:16;;;;;;;;;;;;;;;-0.21;76.49;93732.75;5056029;28;19951;-74
2024/01/23 10:07:42;;;;;;;;;;;;;;;-0.29;75.44;93730.88;5052515;28;19927;-74
2024/01/23 10:10:13;;;;;;;;;;;;;;;-0.13;76.34;93724.53;5061674;28;19929;-74
2024/01/23 10:12:47;;;;;;;;;;;;;;;-0.01;75.71;93725.19;5052768;28;20341;-74
2024/01/23 10:15:16;;;;;;;;;;;;;;;0.00;75.58;93719.22;5048592;28;20148;-74
2024/01/23 10:17:49;;;;;;;;;;;;;;;0.16;77.35;93708.59;5055785;28;20441;-75
2024/01/23 10:20:31;;;;;;;;;;;;;;;;;;;;;
2024/01/23 10:22:59;;;;;;;;;;;;;;;0.30;76.79;93699.00;5051786;28;19921;-74
2024/01/23 10:25:37;;;;;;;;;;;;;;;0.59;79.25;93686.31;5051233;28;19977;-74
2024/01/23 10:28:04;;;;;;;;;;;;;;;0.90;80.28;93681.06;5048539;28;19931;-74
2024/01/23 10:30:33;;;;;;;;;;;;;;;1.11;79.74;93679.25;5048583;28;20023;-74
2024/01/23 10:33:04;;;;;;;;;;;;;;;1.06;77.33;93682.97;5051347;28;19921;-74
2024/01/23 10:35:36;;;;;;;;;;;;;;;1.22;76.15;93686.66;5055344;28;20394;-74
2024/01/23 10:38:05;;;;;;;;;;;;;;;0.82;73.16;93683.47;5051075;28;20440;-75
2024/01/23 10:40:32;;;;;;;;;;;;;;;0.97;72.98;93681.28;5055103;28;20043;-74
2024/01/23 10:42:59;;;;;;;;;;;;;;;0.93;72.63;93673.16;5050372;28;19963;-74
2024/01/23 10:45:29;;;;;;;;;;;;;;;1.22;74.48;93673.19;5059179;28;20259;-74
2024/01/23 10:48:01;;;;;;;;;;;;;;;1.18;72.17;93673.50;5051013;28;19920;-75
2024/01/23 10:50:33;;;;;;;;;;;;;;;1.06;71.77;93672.88;5054805;28;19920;-75
2024/01/23 10:53:04;;;;;;;;;;;;;;;1.27;71.80;93660.91;5047808;28;20329;-75
2024/01/23 10:55:35;;;;;;;;;;;;;;;1.28;71.56;93648.13;5051255;28;19935;-75
2024/01/23 10:58:04;;;;;;;;;;;;;;;1.17;71.02;93651.63;5050908;28;19924;-75
2024/01/23 11:00:34;;;;;;;;;;;;;;;1.44;74.08;93644.97;5050395;28;19924;-75
2024/01/23 11:03:04;;;;;;;;;;;;;;;1.64;70.18;93644.84;5048068;28;20362;-74
2024/01/23 11:05:41;;;;;;;;;;;;;;;1.35;69.63;93648.38;5051085;28;19921;-75
2024/01/23 11:08:14;;;;;;;;;;;;;;;1.46;68.35;93645.63;5050960;28;19971;-75
2024/01/23 11:10:46;;;;;;;;;;;;;;;1.52;68.93;93643.47;5050963;28;19943;-74
2024/01/23 11:13:17;;;;;;;;;;;;;;;1.58;67.00;93638.59;5051342;28;19927;-75
2024/01/23 11:15:44;;;;;;;;;;;;;;;1.67;66.38;93626.81;5049729;28;19964;-74
2024/01/23 11:18:25;;;;;;;;;;;;;;;1.66;67.72;93634.59;5052028;28;19921;-74
2024/01/23 11:21:15;;;;;;;;;;;;;;;1.61;65.66;93632.47;5051004;28;20950;-74
2024/01/23 11:23:44;;;;;;;;;;;;;;;1.74;67.13;93619.44;5043608;28;20017;-74
2024/01/23 11:26:15;;;;;;;;;;;;;;;1.96;63.58;93614.88;5057102;28;19924;-74
2024/01/23 11:28:43;;;;;;;;;;;;;;;2.07;64.31;93617.19;5049649;28;20298;-74
2024/01/23 11:31:10;;;;;;;;;;;;;;;1.89;65.74;93624.00;5047406;28;19921;-74
2024/01/23 11:33:44;;;;;;;;;;;;;;;1.73;66.68;93621.16;5049692;28;19921;-74
2024/01/23 11:36:28;;;;;;;;;;;;;;;2.05;66.37;93626.69;5060233;28;20358;-74
2024/01/23 11:38:58;;;;;;;;;;;;;;;2.24;64.43;93630.78;5056598;28;20011;-74
2024/01/23 11:41:29;;;;;;;;;;;;;;;2.25;67.26;93632.38;5053372;28;19951;-75
2024/01/23 11:43:59;;;;;;;;;;;;;;;2.42;68.39;93631.66;5059931;28;19931;-74
2024/01/23 11:46:26;;;;;;;;;;;;;;;2.23;64.78;93634.22;5059139;28;19928;-74
2024/01/23 11:48:55;;;;;;;;;;;;;;;2.34;66.61;93630.69;5056791;28;19931;-74
2024/01/23 11:51:24;;;;;;;;;;;;;;;2.44;70.08;93622.19;5060863;28;19924;-74
2024/01/23 11:53:51;;;;;;;;;;;;;;;2.52;70.05;93622.22;5056609;28;19925;-75
2024/01/23 11:56:30;;;;;;;;;;;;;;;2.51;69.52;93620.63;5055063;28;20009;-76
2024/01/23 11:58:57;;;;;;;;;;;;;;;2.41;68.43;93620.75;5053635;28;20298;-73
2024/01/23 12:01:28;;;;;;;;;;;;;;;2.62;68.76;93622.91;5054150;28;20269;-73
2024/01/23 12:03:55;;;;;;;;;;;;;;;2.47;68.80;93629.47;5052712;28;20465;-72
2024/01/23 12:06:22;;;;;;;;;;;;;;;2.50;69.47;93634.25;5053884;28;19924;-73
2024/01/23 12:08:50;;;;;;;;;;;;;;;2.36;69.71;93636.38;5050977;28;20010;-72
2024/01/23 12:11:18;;;;;;;;;;;;;;;2.21;70.66;93641.19;5063035;28;20428;-73
2024/01/23 12:13:48;;;;;;;;;;;;;;;2.42;72.51;93635.00;5051885;28;20055;-73
2024/01/23 12:16:17;;;;;;;;;;;;;;;2.61;72.69;93635.75;5057724;28;19947;-73
2024/01/23 12:18:44;;;;;;;;;;;;;;;2.51;70.44;93639.16;5057225;28;19921;-73
2024/01/23 12:21:11;;;;;;;;;;;;;;;2.52;71.55;93637.44;5052957;28;19999;-73
2024/01/23 12:23:38;;;;;;;;;;;;;;;2.35;71.71;93644.13;5052132;28;20263;-72
2024/01/23 12:26:07;;;;;;;;;;;;;;;2.60;72.98;93642.53;5049727;28;19925;-73
2024/01/23 12:28:34;;;;;;;;;;;;;;;2.60;73.25;93650.16;5052026;28;19921;-73
2024/01/23 12:31:10;;;;;;;;;;;;;;;2.71;73.80;93644.03;5055720;28;19932;-73
2024/01/23 12:33:38;;;;;;;;;;;;;;;2.84;72.72;93645.38;5063874;28;19967;-73
2024/01/23 12:36:06;;;;;;;;;;;;;;;2.86;71.42;93648.56;5063639;28;19925;-73
2024/01/23 12:38:35;;;;;;;;;;;;;;;2.79;68.06;93651.69;5054250;28;20007;-73
2024/01/23 12:41:11;;;;;;;;;;;;;;;2.64;68.74;93658.28;5058794;28;19925;-73
2024/01/23 12:43:41;;;;;;;;;;;;;;;2.77;69.10;93657.84;5053291;28;20295;-73
2024/01/23 12:46:15;;;;;;;;;;;;;;;2.78;70.09;93659.47;5053941;28;19928;-74
2024/01/23 12:48:49;;;;;;;;;;;;;;;2.93;69.81;93655.41;5055891;28;19924;-74
2024/01/23 12:51:16;;;;;;;;;;;;;;;2.86;68.94;93667.13;5051644;28;19921;-73
2024/01/23 12:53:45;;;;;;;;;;;;;;;2.96;67.33;93667.00;5056898;28;19921;-74
2024/01/23 12:56:14;;;;;;;;;;;;;;;2.99;64.20;93661.63;5056288;28;19929;-73